createdAt,value
2017-10-12T00:00:54.881Z,94.54
2017-10-12T00:03:21.146Z,94.49
2017-10-12T00:05:47.353Z,94.41
2017-10-12T00:08:13.568Z,94.68
2017-10-12T00:10:39.801Z,94.60
2017-10-12T00:13:06.011Z,94.78
2017-10-12T00:15:32.219Z,94.71
2017-10-12T00:17:58.486Z,94.69
2017-10-12T00:20:24.702Z,94.58
2017-10-12T00:22:50.947Z,94.70
2017-10-12T00:25:17.198Z,94.84
2017-10-12T00:27:43.415Z,94.96
2017-10-12T00:30:09.624Z,95.11
2017-10-12T00:32:35.896Z,95.39
2017-10-12T00:35:02.125Z,95.48
2017-10-12T00:37:28.450Z,95.78
2017-10-12T00:39:54.696Z,95.84
2017-10-12T00:42:20.927Z,95.77
2017-10-12T00:44:47.142Z,96.55
2017-10-12T00:47:13.417Z,95.64
2017-10-12T00:49:39.816Z,95.45
2017-10-12T00:52:06.061Z,95.49
2017-10-12T00:54:32.492Z,95.58
2017-10-12T00:56:58.733Z,95.47
2017-10-12T00:59:24.971Z,95.80
2017-10-12T01:01:51.244Z,95.36
2017-10-12T01:04:17.471Z,95.52
2017-10-12T01:06:43.686Z,95.42
2017-10-12T01:09:09.968Z,95.88
2017-10-12T01:11:36.202Z,95.36
2017-10-12T01:14:02.465Z,95.36
2017-10-12T01:16:28.752Z,96.05
2017-10-12T01:18:54.975Z,96.28
2017-10-12T01:21:21.198Z,95.97
2017-10-12T01:23:47.461Z,96.12
2017-10-12T01:26:13.680Z,96.09
2017-10-12T01:28:39.894Z,96.68
2017-10-12T01:31:06.151Z,96.82
2017-10-12T01:33:32.374Z,96.96
2017-10-12T01:35:58.595Z,97.18
2017-10-12T01:38:24.862Z,97.43
2017-10-12T01:40:51.099Z,97.39
2017-10-12T01:43:17.328Z,96.92
2017-10-12T01:45:43.612Z,96.62
2017-10-12T01:48:09.840Z,97.00
2017-10-12T01:50:36.068Z,95.92
2017-10-12T01:53:02.347Z,95.58
2017-10-12T01:55:28.575Z,95.43
2017-10-12T01:57:54.817Z,95.28
2017-10-12T02:00:21.085Z,94.73
2017-10-12T02:02:47.323Z,95.08
2017-10-12T02:05:13.561Z,95.32
2017-10-12T02:07:39.806Z,94.84
2017-10-12T02:10:06.033Z,95.09
2017-10-12T02:12:32.284Z,95.30
2017-10-12T02:14:58.544Z,95.26
2017-10-12T02:17:24.777Z,95.29
2017-10-12T02:19:51.013Z,95.54
2017-10-12T02:22:17.260Z,95.61
2017-10-12T02:24:43.496Z,95.61
2017-10-12T02:27:09.781Z,95.57
2017-10-12T02:29:36.040Z,95.70
2017-10-12T02:32:02.276Z,95.51
2017-10-12T02:34:28.506Z,95.71
2017-10-12T02:36:54.778Z,96.22
2017-10-12T02:39:21.155Z,95.86
2017-10-12T02:41:47.388Z,95.69
2017-10-12T02:44:13.666Z,95.81
2017-10-12T02:46:40.035Z,96.13
2017-10-12T02:49:06.257Z,96.25
2017-10-12T02:51:32.507Z,96.77
2017-10-12T02:53:58.740Z,96.66
2017-10-12T02:56:24.970Z,96.94
2017-10-12T02:58:51.193Z,96.74
2017-10-12T03:01:17.425Z,96.08
2017-10-12T03:03:43.645Z,95.86
2017-10-12T03:06:09.930Z,95.71
2017-10-12T03:08:36.167Z,95.62
2017-10-12T03:11:02.386Z,96.00
2017-10-12T03:13:28.737Z,95.95
2017-10-12T03:15:54.973Z,95.24
2017-10-12T03:18:21.187Z,95.02
2017-10-12T03:20:47.459Z,94.73
2017-10-12T03:23:13.695Z,94.67
2017-10-12T03:25:39.936Z,95.05
2017-10-12T03:28:06.213Z,95.19
2017-10-12T03:30:32.444Z,95.24
2017-10-12T03:32:58.667Z,95.49
2017-10-12T03:35:24.936Z,95.87
2017-10-12T03:37:51.171Z,95.87
2017-10-12T03:40:17.389Z,95.56
2017-10-12T03:42:43.626Z,95.81
2017-10-12T03:45:09.842Z,96.04
2017-10-12T03:47:36.074Z,95.32
2017-10-12T03:50:02.344Z,95.26
2017-10-12T03:52:28.578Z,95.41
2017-10-12T03:54:54.811Z,95.54
2017-10-12T03:57:21.082Z,95.53
2017-10-12T03:59:47.312Z,95.10
2017-10-12T04:02:13.530Z,94.80
2017-10-12T04:04:39.795Z,94.97
2017-10-12T04:07:06.031Z,94.86
2017-10-12T04:09:32.258Z,94.58
2017-10-12T04:11:58.524Z,95.02
2017-10-12T04:14:24.761Z,95.11
2017-10-12T04:16:50.974Z,95.25
2017-10-12T04:19:17.326Z,95.58
2017-10-12T04:21:43.556Z,95.77
2017-10-12T04:24:09.807Z,95.77
2017-10-12T04:26:36.042Z,95.74
2017-10-12T04:29:02.270Z,95.59
2017-10-12T04:31:28.533Z,95.13
2017-10-12T04:33:54.845Z,95.30
2017-10-12T04:36:21.075Z,95.44
2017-10-12T04:38:47.300Z,95.75
2017-10-12T04:41:13.563Z,95.39
2017-10-12T04:43:39.803Z,94.77
2017-10-12T04:46:06.026Z,94.02
2017-10-12T04:48:32.281Z,93.88
2017-10-12T04:50:58.494Z,93.18
2017-10-12T04:53:24.717Z,93.16
2017-10-12T04:55:50.991Z,90.62
2017-10-12T04:58:17.212Z,90.78
2017-10-12T05:00:43.432Z,90.25
2017-10-12T05:03:09.675Z,87.07
2017-10-12T05:05:35.916Z,86.19
2017-10-12T05:08:02.188Z,86.27
2017-10-12T05:10:28.468Z,81.46
2017-10-12T05:12:54.698Z,82.78
2017-10-12T05:15:20.984Z,80.49
2017-10-12T05:17:47.246Z,78.03
2017-10-12T05:20:13.473Z,77.33
2017-10-12T05:22:39.687Z,76.42
2017-10-12T05:25:05.964Z,76.93
2017-10-12T05:27:32.204Z,77.42
2017-10-12T05:29:58.422Z,78.03
2017-10-12T05:32:24.712Z,73.95
2017-10-12T05:34:50.950Z,70.41
2017-10-12T05:37:17.205Z,67.66
2017-10-12T05:39:43.461Z,65.42
2017-10-12T05:42:09.680Z,63.08
2017-10-12T05:44:35.894Z,59.44
2017-10-12T05:47:02.161Z,55.90
2017-10-12T05:49:28.396Z,54.32
2017-10-12T05:51:54.632Z,52.03
2017-10-12T05:54:20.909Z,49.69
2017-10-12T05:56:47.132Z,47.83
2017-10-12T05:59:13.365Z,45.39
2017-10-12T06:01:39.648Z,43.83
2017-10-12T06:04:05.875Z,45.94
2017-10-12T06:06:32.100Z,46.82
2017-10-12T06:08:58.394Z,44.76
2017-10-12T06:11:24.564Z,43.73
2017-10-12T06:13:50.732Z,44.60
2017-10-12T06:16:16.942Z,45.20
2017-10-12T06:18:43.129Z,45.69
2017-10-12T06:21:09.290Z,44.94
2017-10-12T06:23:35.510Z,47.41
2017-10-12T06:26:01.688Z,45.45
2017-10-12T06:28:27.867Z,44.41
2017-10-12T06:30:54.069Z,44.58
2017-10-12T06:33:20.268Z,41.86
2017-10-12T06:35:46.460Z,42.79
2017-10-12T06:38:12.783Z,39.84
2017-10-12T06:40:38.946Z,38.75
2017-10-12T06:43:05.132Z,36.68
2017-10-12T06:45:31.409Z,37.03
2017-10-12T06:47:57.577Z,37.04
2017-10-12T06:50:23.739Z,37.38
2017-10-12T06:52:49.956Z,37.17
2017-10-12T06:55:16.122Z,37.90
2017-10-12T06:57:42.300Z,37.64
2017-10-12T07:00:08.517Z,36.62
2017-10-12T07:02:34.692Z,39.37
2017-10-12T07:05:00.882Z,37.26
2017-10-12T07:07:27.934Z,36.88
2017-10-12T07:09:54.261Z,36.80
2017-10-12T07:12:20.444Z,37.53
2017-10-12T07:14:46.664Z,37.37
2017-10-12T07:17:12.848Z,35.56
2017-10-12T07:19:39.036Z,36.89
2017-10-12T07:22:05.261Z,37.04
2017-10-12T07:24:31.449Z,38.46
2017-10-12T07:26:57.622Z,37.83
2017-10-12T07:29:23.841Z,38.50
2017-10-12T07:31:50.014Z,38.09
2017-10-12T07:34:16.213Z,36.54
2017-10-12T07:36:42.440Z,37.32
2017-10-12T07:39:08.619Z,36.15
2017-10-12T07:41:34.786Z,35.59
2017-10-12T07:44:01.001Z,38.12
2017-10-12T07:46:27.180Z,36.90
2017-10-12T07:48:53.376Z,36.33
2017-10-12T07:51:19.591Z,34.56
2017-10-12T07:53:45.770Z,35.43
2017-10-12T07:56:11.948Z,36.76
2017-10-12T07:58:38.188Z,37.33
2017-10-12T08:01:04.381Z,36.75
2017-10-12T08:03:30.559Z,34.52
2017-10-12T08:05:56.780Z,35.52
2017-10-12T08:08:22.961Z,33.15
2017-10-12T08:10:49.127Z,32.30
2017-10-12T08:13:15.345Z,33.16
2017-10-12T08:15:41.530Z,33.17
2017-10-12T08:18:07.699Z,32.17
2017-10-12T08:20:33.912Z,31.88
2017-10-12T08:23:00.095Z,30.36
2017-10-12T08:25:26.270Z,30.67
2017-10-12T08:27:52.489Z,29.43
2017-10-12T08:30:18.665Z,29.76
2017-10-12T08:32:44.841Z,32.06
2017-10-12T08:35:11.100Z,27.74
2017-10-12T08:37:37.283Z,29.96
2017-10-12T08:40:03.469Z,29.33
2017-10-12T08:42:29.681Z,27.97
2017-10-12T08:44:55.876Z,28.11
2017-10-12T08:47:22.054Z,31.42
2017-10-12T08:49:48.283Z,31.32
2017-10-12T08:52:14.472Z,27.87
2017-10-12T08:54:40.655Z,24.47
2017-10-12T08:57:06.875Z,24.28
2017-10-12T08:59:33.053Z,26.90
2017-10-12T09:01:59.227Z,24.67
2017-10-12T09:04:25.440Z,25.01
2017-10-12T09:06:51.629Z,24.01
2017-10-12T09:09:17.873Z,24.00
2017-10-12T09:11:44.079Z,23.73
2017-10-12T09:14:10.260Z,24.87
2017-10-12T09:16:36.445Z,23.47
2017-10-12T09:19:02.646Z,22.91
2017-10-12T09:21:28.869Z,22.66
2017-10-12T09:23:55.046Z,23.94
2017-10-12T09:26:21.337Z,26.85
2017-10-12T09:28:47.568Z,26.33
2017-10-12T09:31:13.795Z,24.70
2017-10-12T09:33:40.038Z,21.94
2017-10-12T09:36:06.460Z,20.28
2017-10-12T09:38:32.691Z,19.42
2017-10-12T09:40:58.986Z,18.11
2017-10-12T09:43:25.344Z,18.29
2017-10-12T09:45:51.554Z,18.68
2017-10-12T09:48:17.810Z,19.09
2017-10-12T09:50:44.040Z,19.28
2017-10-12T09:53:10.258Z,21.31
2017-10-12T09:55:36.545Z,18.84
2017-10-12T09:58:02.770Z,19.08
2017-10-12T10:00:28.994Z,20.09
2017-10-12T10:02:55.261Z,19.04
2017-10-12T10:05:21.474Z,19.45
2017-10-12T10:07:47.838Z,19.11
2017-10-12T10:10:14.108Z,17.95
2017-10-12T10:12:40.340Z,18.46
2017-10-12T10:15:06.566Z,17.40
2017-10-12T10:17:32.821Z,17.73
2017-10-12T10:19:59.040Z,17.61
2017-10-12T10:22:25.272Z,18.63
2017-10-12T10:24:51.548Z,16.37
2017-10-12T10:27:17.827Z,16.46
2017-10-12T10:29:44.055Z,19.64
2017-10-12T10:32:10.328Z,16.90
2017-10-12T10:34:36.561Z,17.47
2017-10-12T10:37:02.796Z,18.87
2017-10-12T10:39:29.078Z,17.91
2017-10-12T10:41:55.311Z,16.85
2017-10-12T10:44:21.675Z,18.29
2017-10-12T10:46:47.941Z,17.34
2017-10-12T10:49:14.161Z,16.46
2017-10-12T10:51:40.396Z,17.92
2017-10-12T10:54:06.792Z,16.50
2017-10-12T10:56:33.065Z,15.99
2017-10-12T10:58:59.286Z,16.81
2017-10-12T11:01:25.551Z,17.21
2017-10-12T11:03:51.766Z,17.23
2017-10-12T11:06:17.996Z,18.17
2017-10-12T11:08:44.276Z,15.98
2017-10-12T11:11:10.502Z,16.89
2017-10-12T11:13:36.722Z,18.07
2017-10-12T11:16:02.991Z,17.21
2017-10-12T11:18:29.233Z,15.94
2017-10-12T11:20:55.445Z,15.92
2017-10-12T11:23:21.698Z,15.82
2017-10-12T11:25:47.916Z,15.87
2017-10-12T11:28:14.134Z,15.35
2017-10-12T11:30:40.397Z,16.62
2017-10-12T11:33:06.610Z,16.34
2017-10-12T11:35:32.840Z,15.45
2017-10-12T11:37:59.115Z,16.21
2017-10-12T11:40:25.352Z,16.38
2017-10-12T11:42:51.578Z,15.46
2017-10-12T11:45:17.828Z,14.44
2017-10-12T11:47:44.040Z,15.57
2017-10-12T11:50:10.254Z,16.08
2017-10-12T11:52:36.521Z,17.28
2017-10-12T11:55:02.742Z,17.58
2017-10-12T11:57:28.968Z,17.46
2017-10-12T11:59:55.222Z,16.99
2017-10-12T12:02:21.604Z,17.95
2017-10-12T12:04:47.839Z,17.75
2017-10-12T12:07:14.104Z,16.60
2017-10-12T12:09:40.325Z,16.67
2017-10-12T12:12:06.548Z,17.10
2017-10-12T12:14:32.845Z,16.24
2017-10-12T12:16:59.080Z,15.06
2017-10-12T12:19:25.310Z,14.63
2017-10-12T12:21:51.560Z,14.95
2017-10-12T12:24:17.769Z,14.30
2017-10-12T12:26:43.997Z,14.28
2017-10-12T12:29:10.269Z,14.54
2017-10-12T12:31:36.505Z,16.53
2017-10-12T12:34:02.726Z,16.75
2017-10-12T12:36:28.984Z,17.67
2017-10-12T12:38:55.238Z,17.52
2017-10-12T12:41:21.454Z,14.54
2017-10-12T12:43:47.755Z,13.91
2017-10-12T12:46:13.974Z,14.80
2017-10-12T12:48:40.211Z,14.93
2017-10-12T12:51:06.444Z,15.04
2017-10-12T12:53:32.685Z,15.02
2017-10-12T12:55:59.031Z,15.70
2017-10-12T12:58:25.281Z,16.01
2017-10-12T13:00:51.512Z,16.58
2017-10-12T13:03:17.742Z,16.25
2017-10-12T13:05:44.008Z,15.74
2017-10-12T13:08:10.237Z,15.99
2017-10-12T13:10:36.451Z,16.13
2017-10-12T13:13:02.729Z,18.08
2017-10-12T13:15:28.963Z,17.85
2017-10-12T13:17:55.293Z,18.44
2017-10-12T13:20:21.545Z,20.01
2017-10-12T13:22:47.761Z,22.73
2017-10-12T13:25:13.996Z,24.46
2017-10-12T13:27:40.269Z,25.50
2017-10-12T13:30:06.493Z,27.47
2017-10-12T13:32:32.720Z,28.92
2017-10-12T13:34:58.972Z,28.97
2017-10-12T13:37:25.342Z,29.61
2017-10-12T13:39:51.951Z,30.12
2017-10-12T13:42:18.616Z,30.41
2017-10-12T13:44:45.255Z,31.27
2017-10-12T13:47:11.717Z,31.21
2017-10-12T13:49:38.120Z,31.55
2017-10-12T13:52:04.737Z,31.44
2017-10-12T13:54:31.131Z,31.67
2017-10-12T13:56:57.574Z,31.36
2017-10-12T13:59:23.917Z,33.23
2017-10-12T14:01:50.492Z,32.11
2017-10-12T14:04:16.926Z,32.82
2017-10-12T14:06:43.565Z,32.39
2017-10-12T14:09:10.061Z,32.82
2017-10-12T14:11:36.509Z,32.88
2017-10-12T14:14:03.020Z,32.34
2017-10-12T14:16:29.462Z,33.50
2017-10-12T14:18:55.875Z,32.68
2017-10-12T14:21:22.371Z,32.78
2017-10-12T14:23:48.985Z,32.31
2017-10-12T14:26:15.236Z,33.19
2017-10-12T14:28:41.746Z,33.32
2017-10-12T14:31:08.265Z,33.20
2017-10-12T14:33:34.705Z,33.30
2017-10-12T14:36:01.125Z,33.63
2017-10-12T14:38:27.568Z,34.51
2017-10-12T14:40:53.985Z,34.27
2017-10-12T14:43:20.428Z,34.35
2017-10-12T14:45:46.910Z,34.25
2017-10-12T14:48:13.343Z,35.16
2017-10-12T14:50:39.571Z,36.95
2017-10-12T14:53:05.799Z,38.80
2017-10-12T14:55:32.438Z,41.51
2017-10-12T14:57:58.666Z,42.65
2017-10-12T15:00:24.895Z,43.66
2017-10-12T15:02:51.330Z,44.97
2017-10-12T15:05:17.831Z,46.24
2017-10-12T15:07:44.400Z,46.79
2017-10-12T15:10:10.892Z,48.92
2017-10-12T15:12:37.333Z,48.81
2017-10-12T15:15:03.906Z,49.27
2017-10-12T15:17:30.543Z,52.10
2017-10-12T15:19:57.183Z,53.43
2017-10-12T15:22:23.799Z,54.60
2017-10-12T15:24:50.218Z,55.41
2017-10-12T15:27:16.501Z,56.60
2017-10-12T15:29:42.723Z,56.76
2017-10-12T15:32:08.939Z,59.17
2017-10-12T15:34:35.365Z,60.01
2017-10-12T15:37:02.012Z,60.38
2017-10-12T15:39:28.619Z,60.07
2017-10-12T15:41:55.038Z,60.74
2017-10-12T15:44:21.479Z,62.90
2017-10-12T15:46:47.900Z,63.41
2017-10-12T15:49:14.314Z,64.44
2017-10-12T15:51:41.800Z,66.31
2017-10-12T15:54:08.010Z,66.31
2017-10-12T15:56:34.437Z,66.46
2017-10-12T15:59:00.731Z,67.76
2017-10-12T16:01:27.026Z,68.53
2017-10-12T16:03:53.437Z,66.69
2017-10-12T16:06:19.802Z,69.48
2017-10-12T16:08:46.465Z,70.09
2017-10-12T16:11:12.996Z,70.26
2017-10-12T16:13:39.385Z,70.44
2017-10-12T16:16:05.926Z,71.19
2017-10-12T16:18:32.361Z,67.89
2017-10-12T16:20:58.618Z,67.52
2017-10-12T16:23:25.103Z,68.51
2017-10-12T16:25:51.482Z,69.35
2017-10-12T16:28:17.988Z,71.64
2017-10-12T16:30:44.566Z,69.94
2017-10-12T16:33:10.920Z,73.09
2017-10-12T16:35:37.389Z,74.22
2017-10-12T16:38:03.825Z,75.26
2017-10-12T16:40:30.098Z,75.82
2017-10-12T16:42:56.533Z,75.39
2017-10-12T16:45:22.969Z,75.36
2017-10-12T16:47:49.409Z,75.55
2017-10-12T16:50:15.611Z,76.09
2017-10-12T16:52:42.277Z,76.32
2017-10-12T16:55:08.705Z,76.40
2017-10-12T16:57:35.118Z,78.36
2017-10-12T17:00:01.510Z,78.98
2017-10-12T17:02:27.792Z,79.78
2017-10-12T17:04:54.026Z,79.28
2017-10-12T17:07:20.662Z,78.65
2017-10-12T17:09:47.153Z,79.44
2017-10-12T17:12:13.593Z,80.20
2017-10-12T17:14:40.168Z,79.55
2017-10-12T17:17:06.776Z,80.62
2017-10-12T17:19:33.217Z,81.25
2017-10-12T17:21:59.663Z,80.93
2017-10-12T17:24:26.107Z,81.96
2017-10-12T17:26:52.565Z,82.29
2017-10-12T17:29:19.034Z,82.83
2017-10-12T17:31:45.454Z,82.30
2017-10-12T17:34:12.041Z,82.99
2017-10-12T17:36:38.657Z,82.38
2017-10-12T17:39:05.076Z,82.49
2017-10-12T17:41:31.499Z,83.20
2017-10-12T17:43:58.040Z,83.68
2017-10-12T17:48:50.849Z,83.81
2017-10-12T17:51:17.238Z,83.84
2017-10-12T17:53:43.501Z,84.10
2017-10-12T17:56:09.736Z,83.01
2017-10-12T17:58:36.375Z,83.17
2017-10-12T18:01:02.578Z,83.20
2017-10-12T18:03:28.874Z,83.98
2017-10-12T18:05:55.314Z,83.98
2017-10-12T18:08:21.703Z,83.21
2017-10-12T18:10:48.146Z,83.96
2017-10-12T18:13:14.362Z,83.87
2017-10-12T18:15:40.594Z,84.18
2017-10-12T18:18:06.940Z,85.05
2017-10-12T18:20:36.142Z,84.80
2017-10-12T18:23:02.804Z,86.50
2017-10-12T18:25:29.227Z,86.43
2017-10-12T18:27:55.686Z,86.81
2017-10-12T18:30:22.134Z,86.23
2017-10-12T18:32:48.649Z,86.35
2017-10-12T18:35:15.367Z,85.76
2017-10-12T18:37:41.892Z,85.97
2017-10-12T18:40:08.367Z,86.49
2017-10-12T18:42:34.921Z,87.32
2017-10-12T18:45:01.498Z,88.19
2017-10-12T18:47:27.855Z,88.06
2017-10-12T18:52:21.082Z,87.59
2017-10-12T18:54:47.536Z,86.74
2017-10-12T18:57:14.231Z,87.50
2017-10-12T18:59:40.764Z,87.14
2017-10-12T19:02:07.572Z,87.99
2017-10-12T19:04:33.938Z,88.30
2017-10-12T19:07:00.557Z,88.69
2017-10-12T19:09:27.094Z,88.47
2017-10-12T19:11:53.555Z,87.96
2017-10-12T19:14:20.155Z,88.33
2017-10-12T19:16:46.789Z,89.26
2017-10-12T19:19:13.548Z,87.23
2017-10-12T19:21:40.072Z,86.18
2017-10-12T19:24:06.608Z,86.45
2017-10-12T19:26:33.747Z,86.74
2017-10-12T19:29:00.335Z,87.89
2017-10-12T19:31:26.834Z,87.97
2017-10-12T19:33:53.239Z,88.25
2017-10-12T19:36:19.720Z,87.75
2017-10-12T19:38:46.208Z,88.52
2017-10-12T19:43:39.277Z,89.62
2017-10-12T19:46:05.824Z,89.91
2017-10-12T19:48:32.256Z,90.06
2017-10-12T19:55:51.268Z,89.89
2017-10-12T19:58:17.800Z,90.47
2017-10-12T20:00:44.181Z,88.85
2017-10-12T20:03:10.555Z,89.21
2017-10-12T20:05:36.832Z,89.77
2017-10-12T20:08:03.142Z,89.69
2017-10-12T20:10:29.501Z,90.23
2017-10-12T20:12:55.861Z,90.28
2017-10-12T20:15:22.152Z,91.15
2017-10-12T20:17:48.528Z,90.34
2017-10-12T20:20:14.772Z,90.59
2017-10-12T20:22:40.984Z,90.20
2017-10-12T20:25:07.206Z,89.63
2017-10-12T20:27:33.435Z,89.74
2017-10-12T20:29:59.650Z,90.22
2017-10-12T20:32:25.882Z,90.32
2017-10-12T20:34:52.103Z,91.49
2017-10-12T20:37:18.318Z,89.67
2017-10-12T20:39:44.529Z,89.22
2017-10-12T20:42:13.716Z,91.10
2017-10-12T20:44:37.085Z,90.96
2017-10-12T20:47:03.346Z,91.94
2017-10-12T20:51:55.717Z,91.05
2017-10-12T20:54:21.939Z,90.49
2017-10-12T20:56:48.136Z,90.73
2017-10-12T20:59:14.361Z,91.46
2017-10-12T21:01:40.568Z,91.21
2017-10-12T21:04:06.867Z,91.12
2017-10-12T21:06:33.202Z,90.75
2017-10-12T21:08:59.448Z,90.86
2017-10-12T21:11:25.654Z,91.30
2017-10-12T21:13:51.881Z,92.01
2017-10-12T21:16:18.132Z,91.57
2017-10-12T21:18:44.330Z,91.39
2017-10-12T21:21:10.546Z,93.06
2017-10-12T21:23:36.776Z,91.92
2017-10-12T21:26:03.002Z,91.69
2017-10-12T21:28:29.287Z,91.94
2017-10-12T21:30:55.505Z,92.00
2017-10-12T21:33:21.726Z,92.10
2017-10-12T21:35:47.950Z,91.59
2017-10-12T21:38:14.165Z,91.90
2017-10-12T21:40:40.414Z,91.97
2017-10-12T21:43:06.640Z,92.07
2017-10-12T21:45:32.831Z,91.71
2017-10-12T21:47:59.072Z,92.77
2017-10-12T21:50:25.281Z,91.99
2017-10-12T21:52:51.721Z,92.09
2017-10-12T21:55:17.959Z,92.71
2017-10-12T21:57:44.193Z,92.45
2017-10-12T22:00:10.444Z,92.19
2017-10-12T22:02:36.674Z,92.55
2017-10-12T22:05:03.084Z,92.46
2017-10-12T22:07:29.341Z,92.56
2017-10-12T22:09:55.537Z,92.40
2017-10-12T22:12:21.754Z,92.39
2017-10-12T22:14:47.999Z,93.04
2017-10-12T22:17:14.242Z,92.44
2017-10-12T22:19:40.472Z,92.32
2017-10-12T22:22:06.711Z,92.92
2017-10-12T22:24:33.003Z,92.81
2017-10-12T22:26:59.235Z,93.41
2017-10-12T22:29:25.459Z,92.96
2017-10-12T22:31:51.721Z,92.89
2017-10-12T22:34:17.942Z,92.10
2017-10-12T22:36:44.157Z,92.17
2017-10-12T22:39:10.382Z,92.63
2017-10-12T22:41:36.601Z,92.51
2017-10-12T22:44:02.825Z,92.47
2017-10-12T22:46:29.140Z,92.59
2017-10-12T22:48:55.362Z,92.49
2017-10-12T22:51:21.571Z,92.85
2017-10-12T22:53:47.789Z,92.81
2017-10-12T22:56:14.007Z,92.79
2017-10-12T22:58:40.208Z,92.75
2017-10-12T23:01:06.440Z,92.87
2017-10-12T23:03:32.659Z,93.04
2017-10-12T23:05:58.924Z,93.26
2017-10-12T23:08:25.144Z,93.00
2017-10-12T23:10:51.384Z,92.69
2017-10-12T23:13:17.655Z,92.55
2017-10-12T23:15:43.890Z,93.09
2017-10-12T23:18:10.122Z,92.84
2017-10-12T23:20:36.342Z,92.76
2017-10-12T23:23:02.580Z,92.76
2017-10-12T23:25:28.811Z,92.34
2017-10-12T23:27:55.021Z,92.81
2017-10-12T23:30:21.229Z,93.40
2017-10-12T23:32:47.445Z,92.63
2017-10-12T23:35:13.712Z,92.18
2017-10-12T23:37:39.940Z,92.67
2017-10-12T23:40:06.148Z,92.60
2017-10-12T23:42:32.378Z,92.92
2017-10-12T23:44:58.601Z,92.71
2017-10-12T23:47:24.822Z,93.21
2017-10-12T23:49:51.096Z,93.04
2017-10-12T23:52:17.317Z,93.47
2017-10-12T23:54:43.539Z,93.03
2017-10-12T23:57:09.762Z,93.02
2017-10-12T23:59:35.979Z,93.35
